Time;durP1;ratioP1;P1;durP2;ratioP2;P2;SDS_P1;SDS_P2;PMS_P1;PMS_P2;Temp;Humidity;BMP_temperature;BMP_pressure;BME280_temperature;BME280_humidity;BME280_pressure;Samples;Min_cycle;Max_cycle;Signal;HPM_P1;HPM_P2
2021/12/03 00:01:33;;;;;;;7.38;2.05;;;0.90;99.90;;;;;;4936361;29;20055;-72
2021/12/03 00:03:59;;;;;;;5.45;2.30;;;0.90;99.90;;;;;;4936599;29;20400;-71
2021/12/03 00:06:24;;;;;;;7.88;2.53;;;0.90;99.90;;;;;;4949846;28;20043;-71
2021/12/03 00:08:53;;;;;;;9.90;3.17;;;0.90;99.90;;;;;;4935359;29;20515;-71
2021/12/03 00:11:24;;;;;;;6.10;3.08;;;0.90;99.90;;;;;;4936916;29;20051;-71
2021/12/03 00:13:49;;;;;;;7.38;2.78;;;0.90;99.90;;;;;;4955663;29;20428;-71
2021/12/03 00:16:15;;;;;;;7.10;2.33;;;0.90;99.90;;;;;;4955047;28;20079;-72
2021/12/03 00:18:43;;;;;;;5.95;2.67;;;0.80;99.90;;;;;;4939665;29;20031;-71
2021/12/03 00:21:12;;;;;;;4.97;2.10;;;0.80;99.90;;;;;;4943617;28;20059;-71
2021/12/03 00:23:39;;;;;;;8.02;2.25;;;0.80;99.90;;;;;;4957428;28;20050;-71
2021/12/03 00:26:08;;;;;;;7.32;2.63;;;0.80;99.90;;;;;;4958488;28;20043;-71
2021/12/03 00:28:37;;;;;;;5.85;2.00;;;0.80;99.90;;;;;;4938102;29;20487;-71
2021/12/03 00:31:04;;;;;;;5.85;2.28;;;0.80;99.90;;;;;;4955554;28;20063;-71
2021/12/03 00:33:35;;;;;;;10.85;3.17;;;0.80;99.90;;;;;;4954078;28;20054;-71
2021/12/03 00:36:09;;;;;;;7.18;2.90;;;0.90;99.90;;;;;;4937876;29;20070;-71
2021/12/03 00:38:44;;;;;;;6.07;2.50;;;0.80;99.90;;;;;;4955296;29;20048;-71
2021/12/03 00:41:14;;;;;;;5.88;2.05;;;0.80;99.90;;;;;;4955455;28;20114;-71
2021/12/03 00:43:47;;;;;;;8.93;2.33;;;0.80;99.90;;;;;;4937717;29;20165;-71
2021/12/03 00:46:17;;;;;;;5.72;1.48;;;0.80;99.90;;;;;;4938670;29;20110;-71
2021/12/03 00:48:52;;;;;;;8.57;2.17;;;0.90;99.90;;;;;;4938385;29;20062;-71
2021/12/03 00:51:23;;;;;;;6.82;1.98;;;0.90;99.90;;;;;;4948650;29;20070;-71
2021/12/03 00:53:52;;;;;;;5.13;2.20;;;0.90;99.90;;;;;;4938677;28;20403;-71
2021/12/03 00:56:18;;;;;;;6.07;2.22;;;0.90;99.90;;;;;;4941240;29;20141;-71
2021/12/03 00:58:44;;;;;;;6.93;2.10;;;0.90;99.90;;;;;;4954058;28;20079;-71
2021/12/03 01:01:10;;;;;;;4.35;1.85;;;0.90;99.90;;;;;;4938121;29;20084;-71
2021/12/03 01:03:37;;;;;;;4.55;2.15;;;0.90;99.90;;;;;;4952773;28;20035;-71
2021/12/03 01:06:03;;;;;;;7.80;2.40;;;0.90;99.90;;;;;;4963203;28;20842;-70
2021/12/03 01:08:31;;;;;;;8.32;2.20;;;0.90;99.90;;;;;;4945481;29;20047;-71
2021/12/03 01:10:57;;;;;;;4.15;1.63;;;1.00;99.90;;;;;;4936887;29;20051;-71
2021/12/03 01:13:25;;;;;;;6.03;2.03;;;1.00;99.90;;;;;;4937123;29;20043;-71
2021/12/03 01:15:51;;;;;;;6.53;2.25;;;1.00;99.90;;;;;;4937409;29;20053;-71
2021/12/03 01:18:17;;;;;;;5.43;2.28;;;1.00;99.90;;;;;;4944882;29;20065;-71
2021/12/03 01:20:46;;;;;;;7.90;2.80;;;1.00;99.90;;;;;;4954187;29;20403;-70
2021/12/03 01:23:12;;;;;;;6.65;2.47;;;1.00;99.90;;;;;;4961861;28;20078;-71
2021/12/03 01:25:38;;;;;;;7.40;2.47;;;1.00;99.90;;;;;;4952541;29;20481;-71
2021/12/03 01:28:04;;;;;;;8.13;2.60;;;1.10;99.90;;;;;;4937184;29;20055;-71
2021/12/03 01:30:33;;;;;;;4.95;2.40;;;1.10;99.90;;;;;;4937400;29;20036;-71
2021/12/03 01:33:01;;;;;;;8.05;3.85;;;1.10;99.90;;;;;;4936817;29;20109;-71
2021/12/03 01:35:28;;;;;;;5.53;2.28;;;1.30;99.90;;;;;;4937930;28;20489;-71
2021/12/03 01:37:54;;;;;;;6.22;2.80;;;1.20;99.90;;;;;;4956363;28;20063;-71
2021/12/03 01:40:25;;;;;;;7.50;3.05;;;1.20;99.90;;;;;;4952111;29;20483;-71
2021/12/03 01:42:54;;;;;;;9.88;3.55;;;1.30;99.90;;;;;;4936962;29;20058;-71
2021/12/03 01:45:28;;;;;;;8.13;3.58;;;1.30;99.90;;;;;;4956973;28;20141;-72
2021/12/03 01:47:54;;;;;;;11.40;4.07;;;1.20;99.90;;;;;;4948951;29;20060;-72
2021/12/03 01:50:26;;;;;;;9.30;4.38;;;1.30;99.90;;;;;;4937137;28;20299;-72
2021/12/03 01:52:52;;;;;;;10.13;4.18;;;1.50;99.90;;;;;;4953823;29;20054;-72
2021/12/03 01:55:20;;;;;;;11.13;4.45;;;1.30;99.90;;;;;;4953468;28;20507;-72
2021/12/03 01:57:45;;;;;;;8.82;3.83;;;1.30;99.90;;;;;;4936859;29;20110;-72
2021/12/03 02:00:20;;;;;;;8.98;5.03;;;1.30;99.90;;;;;;4953419;29;20483;-72
2021/12/03 02:02:47;;;;;;;12.60;5.25;;;1.40;99.90;;;;;;4972997;28;20039;-72
2021/12/03 02:05:13;;;;;;;12.88;4.43;;;1.40;99.90;;;;;;4950567;29;20504;-72
2021/12/03 02:07:38;;;;;;;16.20;4.95;;;1.40;99.90;;;;;;4953328;29;20129;-72
2021/12/03 02:10:08;;;;;;;12.05;5.07;;;1.40;99.90;;;;;;4936052;29;20182;-72
2021/12/03 02:12:36;;;;;;;10.82;4.93;;;1.40;99.90;;;;;;4933010;29;20351;-72
2021/12/03 02:15:09;;;;;;;15.55;5.30;;;1.40;99.90;;;;;;4935199;29;20043;-72
2021/12/03 02:17:34;;;;;;;13.55;5.18;;;1.40;99.90;;;;;;4933325;29;20516;-72
2021/12/03 02:20:01;;;;;;;16.20;5.53;;;1.40;99.90;;;;;;4938460;29;20123;-72
2021/12/03 02:22:27;;;;;;;14.02;4.97;;;1.40;99.90;;;;;;4933586;29;20040;-72
2021/12/03 02:24:52;;;;;;;11.43;4.82;;;1.50;99.90;;;;;;4933368;29;20065;-72
2021/12/03 02:27:18;;;;;;;13.07;5.00;;;1.40;99.90;;;;;;4932526;29;20473;-72
2021/12/03 02:29:45;;;;;;;11.30;5.20;;;1.50;99.90;;;;;;4933859;29;20043;-72
2021/12/03 02:32:10;;;;;;;16.50;5.57;;;1.50;99.90;;;;;;4933342;29;20448;-72
2021/12/03 02:34:38;;;;;;;15.38;6.07;;;1.50;99.90;;;;;;4932216;29;20054;-72
2021/12/03 02:37:05;;;;;;;9.63;5.45;;;1.50;99.90;;;;;;4933865;29;20059;-72
2021/12/03 02:39:34;;;;;;;13.32;5.13;;;1.50;99.90;;;;;;4932504;29;20099;-72
2021/12/03 02:42:02;;;;;;;11.73;5.90;;;1.50;99.90;;;;;;4932538;29;20515;-72
2021/12/03 02:44:31;;;;;;;13.88;6.93;;;1.50;99.90;;;;;;4947399;29;20091;-72
2021/12/03 02:46:56;;;;;;;15.82;7.10;;;1.60;99.90;;;;;;4943712;29;20053;-72
2021/12/03 02:49:22;;;;;;;17.17;7.22;;;1.60;99.90;;;;;;4950418;29;20051;-72
2021/12/03 02:51:47;;;;;;;12.70;7.13;;;1.50;99.90;;;;;;4953399;29;20039;-72
2021/12/03 02:54:13;;;;;;;20.88;9.13;;;1.50;99.90;;;;;;4951401;29;20047;-72
2021/12/03 02:56:41;;;;;;;18.90;9.35;;;1.60;99.90;;;;;;4952406;29;20059;-72
2021/12/03 02:59:07;;;;;;;19.75;10.43;;;1.60;99.90;;;;;;4944975;29;20480;-72
2021/12/03 03:01:32;;;;;;;20.48;10.57;;;1.60;99.90;;;;;;4951541;29;20055;-72
2021/12/03 03:03:58;;;;;;;25.95;13.05;;;1.60;99.90;;;;;;4945563;29;20322;-72
2021/12/03 03:06:25;;;;;;;21.35;13.43;;;1.60;99.90;;;;;;4933605;29;20062;-72
2021/12/03 03:08:51;;;;;;;25.63;14.82;;;1.60;99.90;;;;;;4933493;29;20035;-72
2021/12/03 03:11:17;;;;;;;26.13;13.40;;;1.60;99.90;;;;;;4933338;29;20401;-73
2021/12/03 03:13:43;;;;;;;28.35;17.02;;;1.60;99.90;;;;;;4935462;29;20051;-72
2021/12/03 03:16:10;;;;;;;26.33;16.17;;;1.60;99.90;;;;;;4950962;29;20079;-71
2021/12/03 03:18:38;;;;;;;32.03;17.92;;;1.70;99.90;;;;;;4940603;29;20047;-71
2021/12/03 03:21:05;;;;;;;24.05;14.63;;;1.70;99.90;;;;;;4954216;28;20051;-71
2021/12/03 03:23:32;;;;;;;27.00;14.77;;;1.60;99.90;;;;;;4941583;29;20103;-71
2021/12/03 03:25:58;;;;;;;28.00;15.20;;;1.70;99.90;;;;;;4945598;29;20125;-71
2021/12/03 03:28:25;;;;;;;26.00;15.27;;;1.70;99.90;;;;;;4941571;28;20491;-72
2021/12/03 03:30:52;;;;;;;26.23;16.42;;;1.70;99.90;;;;;;4963868;28;20042;-71
2021/12/03 03:33:20;;;;;;;23.27;15.45;;;1.70;99.90;;;;;;4960921;28;20053;-71
2021/12/03 03:35:46;;;;;;;25.10;15.63;;;1.70;99.90;;;;;;4978489;28;20121;-71
2021/12/03 03:38:16;;;;;;;24.50;14.82;;;1.60;99.90;;;;;;4960720;28;20053;-71
2021/12/03 03:40:44;;;;;;;28.05;16.05;;;1.70;99.90;;;;;;4953836;28;20483;-71
2021/12/03 03:43:10;;;;;;;28.65;15.35;;;1.60;99.90;;;;;;4958920;28;20488;-71
2021/12/03 03:45:37;;;;;;;27.55;17.83;;;1.60;99.90;;;;;;4946848;29;20041;-71
2021/12/03 03:48:03;;;;;;;29.88;19.58;;;1.60;99.90;;;;;;4940112;29;20082;-71
2021/12/03 03:50:33;;;;;;;28.88;17.92;;;1.60;99.90;;;;;;4958387;28;20039;-71
2021/12/03 03:52:59;;;;;;;26.92;17.52;;;1.60;99.90;;;;;;4940664;29;20487;-71
2021/12/03 03:55:28;;;;;;;27.05;16.88;;;1.60;99.90;;;;;;4941104;29;20783;-71
2021/12/03 03:57:57;;;;;;;28.98;17.77;;;1.60;99.90;;;;;;4941353;28;20083;-71
2021/12/03 04:00:31;;;;;;;26.95;18.92;;;1.50;99.90;;;;;;4977856;28;20125;-71
2021/12/03 04:02:57;;;;;;;26.13;17.58;;;1.60;99.90;;;;;;4973376;28;20502;-71
2021/12/03 04:05:23;;;;;;;29.55;17.60;;;1.60;99.90;;;;;;4969005;28;20093;-71
2021/12/03 04:07:49;;;;;;;27.65;17.88;;;1.50;99.90;;;;;;4958058;28;20082;-71
2021/12/03 04:10:15;;;;;;;30.58;17.63;;;1.80;99.90;;;;;;4958509;28;20114;-71
2021/12/03 04:12:41;;;;;;;25.27;17.30;;;1.50;99.90;;;;;;4956966;28;20055;-71
2021/12/03 04:15:09;;;;;;;23.83;17.30;;;1.50;99.90;;;;;;4970361;28;20057;-71
2021/12/03 04:17:38;;;;;;;26.23;17.80;;;1.50;99.90;;;;;;4959598;28;20042;-71
2021/12/03 04:20:08;;;;;;;32.65;18.10;;;1.50;99.90;;;;;;4960398;28;20069;-71
2021/12/03 04:22:34;;;;;;;27.83;17.65;;;1.50;99.90;;;;;;4955997;28;20051;-71
2021/12/03 04:25:00;;;;;;;25.42;18.02;;;1.50;99.90;;;;;;4952834;29;20035;-71
2021/12/03 04:27:26;;;;;;;24.83;16.45;;;1.50;99.90;;;;;;4957643;28;20053;-71
2021/12/03 04:29:54;;;;;;;27.20;15.98;;;2.40;99.90;;;;;;4957327;28;20062;-71
2021/12/03 04:32:22;;;;;;;23.33;15.98;;;1.50;99.90;;;;;;4939703;28;20051;-70
2021/12/03 04:34:48;;;;;;;27.95;17.15;;;1.40;99.90;;;;;;4937443;29;20055;-71
2021/12/03 04:37:20;;;;;;;23.60;16.15;;;1.60;99.90;;;;;;4938157;29;20058;-71
2021/12/03 04:39:45;;;;;;;25.55;16.98;;;2.70;99.90;;;;;;4954164;29;20039;-71
2021/12/03 04:42:11;;;;;;;22.75;15.40;;;1.40;99.90;;;;;;4937717;29;20054;-71
2021/12/03 04:44:40;;;;;;;23.33;14.43;;;1.40;99.90;;;;;;4964091;28;20039;-71
2021/12/03 04:47:06;;;;;;;23.40;15.80;;;1.40;99.90;;;;;;4938447;29;20047;-71
2021/12/03 04:49:32;;;;;;;24.45;16.85;;;1.40;99.90;;;;;;4937429;29;20522;-71
2021/12/03 04:51:58;;;;;;;24.60;17.25;;;1.40;99.90;;;;;;4956316;28;20078;-71
2021/12/03 04:54:26;;;;;;;22.77;15.38;;;1.40;99.90;;;;;;4950084;29;20077;-71
2021/12/03 04:56:53;;;;;;;21.80;15.95;;;2.20;99.90;;;;;;4936416;29;20051;-71
2021/12/03 04:59:22;;;;;;;26.75;17.65;;;1.30;99.90;;;;;;4955093;28;20081;-71
2021/12/03 05:01:48;;;;;;;22.10;15.75;;;1.40;99.90;;;;;;4953778;28;20058;-71
2021/12/03 05:04:14;;;;;;;22.92;16.70;;;1.40;99.90;;;;;;4936720;29;20047;-71
2021/12/03 05:07:04;;;;;;;26.80;17.52;;;1.40;99.90;;;;;;4937772;28;20142;-71
2021/12/03 05:09:33;;;;;;;23.95;17.23;;;1.40;99.90;;;;;;4972565;28;20097;-71
2021/12/03 05:11:59;;;;;;;26.40;17.80;;;1.40;99.90;;;;;;4955630;28;20146;-71
2021/12/03 05:14:25;;;;;;;22.20;16.27;;;1.40;99.90;;;;;;4949889;29;20051;-71
2021/12/03 05:16:51;;;;;;;29.85;17.23;;;1.30;99.90;;;;;;4954192;28;20043;-71
2021/12/03 05:19:17;;;;;;;22.52;16.55;;;1.40;99.90;;;;;;4937635;29;20041;-71
2021/12/03 05:21:44;;;;;;;25.02;17.08;;;1.30;99.90;;;;;;4939708;29;20043;-71
2021/12/03 05:24:11;;;;;;;23.92;16.52;;;1.40;99.90;;;;;;4939092;29;20066;-71
2021/12/03 05:26:41;;;;;;;24.50;16.55;;;1.40;99.90;;;;;;4954356;28;20051;-71
2021/12/03 05:29:09;;;;;;;26.92;16.92;;;1.40;99.90;;;;;;4936510;29;20088;-71
2021/12/03 05:31:36;;;;;;;27.55;17.73;;;1.40;99.90;;;;;;4934978;29;20126;-71
2021/12/03 05:34:04;;;;;;;27.25;18.02;;;1.40;99.90;;;;;;4965180;28;20509;-71
2021/12/03 05:36:30;;;;;;;24.10;16.88;;;1.40;99.90;;;;;;4954807;28;20077;-71
2021/12/03 05:38:55;;;;;;;24.83;16.83;;;1.40;99.90;;;;;;4970098;28;20043;-71
2021/12/03 05:41:21;;;;;;;24.33;16.27;;;1.40;99.90;;;;;;4940939;29;20047;-71
2021/12/03 05:43:47;;;;;;;24.48;17.67;;;1.40;99.90;;;;;;4953758;28;20050;-71
2021/12/03 05:46:12;;;;;;;24.38;17.30;;;1.40;99.90;;;;;;4955413;28;20411;-71
2021/12/03 05:48:38;;;;;;;25.98;16.20;;;1.40;99.90;;;;;;4947477;29;20047;-71
2021/12/03 05:51:04;;;;;;;22.85;15.90;;;1.50;99.90;;;;;;4936555;29;20467;-71
2021/12/03 05:53:33;;;;;;;23.23;15.38;;;1.50;99.90;;;;;;4953145;29;20070;-71
2021/12/03 05:55:59;;;;;;;25.48;16.77;;;1.50;99.90;;;;;;4952878;29;20051;-71
2021/12/03 05:58:25;;;;;;;22.15;14.85;;;1.50;99.90;;;;;;4952161;29;20055;-71
2021/12/03 06:00:51;;;;;;;25.38;16.70;;;1.50;99.90;;;;;;4952393;29;20050;-71
2021/12/03 06:03:17;;;;;;;28.88;16.98;;;1.50;99.90;;;;;;4954132;28;20047;-71
2021/12/03 06:05:44;;;;;;;27.27;16.45;;;1.50;99.90;;;;;;4953456;29;20051;-71
2021/12/03 06:08:10;;;;;;;30.13;18.55;;;1.60;99.90;;;;;;4953747;28;20054;-71
2021/12/03 06:10:36;;;;;;;26.45;17.05;;;1.80;99.90;;;;;;4953858;29;20047;-71
2021/12/03 06:13:07;;;;;;;23.35;16.25;;;1.60;99.90;;;;;;4952939;29;20130;-71
2021/12/03 06:15:36;;;;;;;26.52;18.73;;;1.60;99.90;;;;;;4936523;28;20802;-71
2021/12/03 06:18:02;;;;;;;25.80;16.75;;;2.30;99.90;;;;;;4945491;28;20101;-71
2021/12/03 06:20:28;;;;;;;26.55;16.58;;;1.60;99.90;;;;;;4942990;29;20051;-72
2021/12/03 06:22:54;;;;;;;27.65;17.30;;;1.60;99.90;;;;;;4947753;28;20502;-72
2021/12/03 06:25:21;;;;;;;22.80;16.60;;;1.60;99.90;;;;;;4939784;29;20097;-72
2021/12/03 06:27:48;;;;;;;26.10;15.30;;;1.60;99.90;;;;;;4936060;29;20419;-71
2021/12/03 06:30:17;;;;;;;22.40;14.63;;;1.60;99.90;;;;;;4954210;28;20050;-71
2021/12/03 06:32:43;;;;;;;26.17;16.02;;;1.70;99.90;;;;;;4946986;29;20050;-72
2021/12/03 06:35:11;;;;;;;26.17;15.32;;;1.70;99.90;;;;;;4952995;29;20051;-71
2021/12/03 06:37:37;;;;;;;26.05;15.60;;;1.80;99.90;;;;;;4956339;28;20393;-71
2021/12/03 06:40:04;;;;;;;30.80;15.18;;;1.70;99.90;;;;;;4937903;29;20130;-71
2021/12/03 06:42:31;;;;;;;21.48;13.70;;;1.70;99.90;;;;;;4937250;29;20039;-71
2021/12/03 06:44:57;;;;;;;21.73;13.38;;;1.70;99.90;;;;;;4943462;29;20135;-72
2021/12/03 06:47:22;;;;;;;22.83;13.60;;;1.70;99.90;;;;;;4936633;29;20485;-72
2021/12/03 06:49:48;;;;;;;22.80;13.05;;;1.70;99.90;;;;;;4935327;29;20043;-72
2021/12/03 06:52:15;;;;;;;20.92;13.48;;;1.80;99.90;;;;;;4936018;29;20483;-71
2021/12/03 06:54:42;;;;;;;21.20;12.75;;;1.80;99.90;;;;;;4946458;29;20047;-71
2021/12/03 06:57:08;;;;;;;21.95;12.65;;;2.00;99.90;;;;;;4934917;29;20079;-72
2021/12/03 06:59:36;;;;;;;22.15;12.18;;;1.80;99.90;;;;;;4965630;28;20486;-72
2021/12/03 07:02:02;;;;;;;17.85;10.70;;;1.80;99.90;;;;;;4969775;28;20134;-72
2021/12/03 07:04:27;;;;;;;19.85;11.00;;;1.90;99.90;;;;;;4971883;28;20149;-72
2021/12/03 07:06:53;;;;;;;19.27;11.15;;;1.90;99.90;;;;;;4950388;28;20122;-72
2021/12/03 07:09:19;;;;;;;21.30;12.40;;;2.00;99.90;;;;;;4952783;28;20051;-72
2021/12/03 07:11:45;;;;;;;19.75;12.00;;;2.00;99.90;;;;;;4953093;28;20059;-73
2021/12/03 07:14:11;;;;;;;20.77;11.88;;;2.00;99.90;;;;;;4955156;28;20409;-75
2021/12/03 07:16:37;;;;;;;18.85;11.48;;;2.00;99.90;;;;;;4952231;29;20051;-74
2021/12/03 07:19:03;;;;;;;19.85;11.48;;;2.00;99.90;;;;;;4953352;28;20043;-75
2021/12/03 07:21:30;;;;;;;23.08;11.55;;;2.00;99.90;;;;;;4959020;28;20081;-75
2021/12/03 07:23:55;;;;;;;34.15;11.05;;;2.00;99.90;;;;;;4955767;28;20129;-73
2021/12/03 07:26:23;;;;;;;24.15;12.80;;;2.00;99.90;;;;;;4939021;28;20564;-74
2021/12/03 07:28:50;;;;;;;20.17;11.95;;;2.00;99.90;;;;;;4946781;28;20116;-75
2021/12/03 07:31:16;;;;;;;19.67;11.95;;;2.00;99.90;;;;;;4963149;28;20055;-75
2021/12/03 07:33:41;;;;;;;17.33;11.48;;;2.00;99.90;;;;;;4968925;28;20042;-74
2021/12/03 07:36:07;;;;;;;15.30;9.45;;;2.00;99.90;;;;;;4949509;28;20069;-74
2021/12/03 07:38:34;;;;;;;22.75;8.75;;;2.00;99.90;;;;;;4957303;28;20138;-74
2021/12/03 07:41:00;;;;;;;17.27;9.43;;;2.10;99.90;;;;;;4962380;28;20824;-74
2021/12/03 07:43:26;;;;;;;20.23;9.38;;;2.10;99.90;;;;;;4934787;29;20131;-74
2021/12/03 07:45:51;;;;;;;16.30;8.23;;;2.10;99.90;;;;;;4943910;28;20133;-74
2021/12/03 07:48:21;;;;;;;14.60;8.70;;;2.10;99.90;;;;;;4954401;28;20047;-74
2021/12/03 07:50:47;;;;;;;15.90;7.88;;;2.10;99.90;;;;;;4950200;28;20047;-73
2021/12/03 07:53:13;;;;;;;19.20;8.32;;;2.10;99.90;;;;;;4952903;28;20089;-74
2021/12/03 07:55:39;;;;;;;16.67;8.88;;;2.10;99.90;;;;;;4938005;29;20522;-73
2021/12/03 07:58:05;;;;;;;19.05;9.35;;;2.10;99.90;;;;;;4934825;28;20047;-73
2021/12/03 08:00:31;;;;;;;16.75;9.98;;;2.10;99.90;;;;;;4971131;28;20043;-73
2021/12/03 08:02:57;;;;;;;21.60;9.48;;;2.10;99.90;;;;;;4955003;28;20043;-72
2021/12/03 08:05:23;;;;;;;19.17;9.43;;;2.20;99.90;;;;;;4955365;28;20062;-73
2021/12/03 08:07:51;;;;;;;17.83;9.27;;;1.50;99.90;;;;;;4939905;29;20078;-73
2021/12/03 08:10:19;;;;;;;17.35;8.52;;;2.20;99.90;;;;;;4956561;28;20529;-73
2021/12/03 08:12:46;;;;;;;17.45;9.63;;;3.60;99.90;;;;;;4954641;29;20418;-72
2021/12/03 08:15:14;;;;;;;16.38;8.63;;;2.20;99.90;;;;;;4970074;28;20068;-72
2021/12/03 08:17:40;;;;;;;20.90;8.90;;;2.20;99.90;;;;;;4955308;28;20047;-72
2021/12/03 08:20:08;;;;;;;16.35;8.73;;;2.20;99.90;;;;;;4968266;28;20058;-72
2021/12/03 08:22:34;;;;;;;15.55;8.32;;;2.20;99.90;;;;;;4960506;28;20059;-72
2021/12/03 08:25:01;;;;;;;18.15;8.82;;;2.30;99.90;;;;;;4945640;29;20039;-72
2021/12/03 08:27:27;;;;;;;20.83;8.55;;;3.40;99.90;;;;;;4974705;28;20050;-72
2021/12/03 08:29:52;;;;;;;17.55;9.35;;;2.30;99.90;;;;;;4956989;28;20051;-71
2021/12/03 08:32:19;;;;;;;18.17;9.25;;;2.40;99.90;;;;;;4961714;28;20050;-72
2021/12/03 08:34:44;;;;;;;18.92;9.38;;;2.40;99.90;;;;;;4957870;28;20047;-72
2021/12/03 08:37:10;;;;;;;20.55;9.77;;;2.40;99.90;;;;;;4952517;28;20054;-72
2021/12/03 08:39:38;;;;;;;16.88;8.77;;;2.40;99.90;;;;;;4962177;28;20044;-72
2021/12/03 08:42:06;;;;;;;23.70;9.30;;;2.40;99.90;;;;;;4939169;28;20066;-71
2021/12/03 08:44:34;;;;;;;18.02;9.93;;;2.40;99.90;;;;;;4968706;28;20059;-72
2021/12/03 08:47:03;;;;;;;22.98;10.25;;;2.40;99.90;;;;;;4953995;29;20074;-72
2021/12/03 08:54:49;;;;;;;23.40;10.55;;;3.00;99.90;;;;;;4938068;28;20535;-75
2021/12/03 08:57:16;;;;;;;22.90;11.80;;;2.60;99.90;;;;;;4944857;29;20062;-74
2021/12/03 08:59:41;;;;;;;25.00;11.30;;;2.60;99.90;;;;;;4957860;28;20044;-75
2021/12/03 09:02:07;;;;;;;20.17;9.80;;;2.60;99.90;;;;;;4955738;28;20058;-76
2021/12/03 09:04:33;;;;;;;21.20;11.45;;;2.70;99.90;;;;;;4944760;28;20740;-76
2021/12/03 09:07:00;;;;;;;21.90;11.27;;;2.70;99.90;;;;;;4941355;28;20055;-76
2021/12/03 09:09:27;;;;;;;23.90;11.73;;;2.70;99.90;;;;;;4955414;28;20061;-76
2021/12/03 09:11:54;;;;;;;25.85;12.43;;;2.70;99.90;;;;;;4946829;28;20070;-76
2021/12/03 09:14:34;;;;;;;27.85;12.57;;;2.70;99.90;;;;;;4963260;28;20078;-76
2021/12/03 09:25:18;;;;;;;21.77;13.40;;;2.90;99.90;;;;;;4967811;28;19934;-75
2021/12/03 09:27:44;;;;;;;24.23;13.70;;;2.90;99.90;;;;;;4944264;29;20058;-75
2021/12/03 09:30:14;;;;;;;24.25;13.52;;;2.90;99.90;;;;;;4954778;29;20051;-76
2021/12/03 09:32:43;;;;;;;31.30;14.48;;;2.90;99.90;;;;;;4955293;28;20051;-76
2021/12/03 09:35:09;;;;;;;24.08;15.75;;;2.90;99.90;;;;;;4955349;29;20066;-76
2021/12/03 09:37:36;;;;;;;29.10;16.13;;;2.90;99.90;;;;;;4937460;29;20061;-76
2021/12/03 09:40:06;;;;;;;31.05;17.00;;;2.90;99.90;;;;;;4963929;28;20086;-76
2021/12/03 09:42:38;;;;;;;29.80;17.42;;;2.90;99.90;;;;;;4960480;28;20453;-76
2021/12/03 09:45:05;;;;;;;32.47;16.85;;;2.90;99.90;;;;;;4968019;28;20042;-76
2021/12/03 09:47:32;;;;;;;29.23;16.00;;;2.50;99.90;;;;;;4943043;29;20043;-75
2021/12/03 09:50:00;;;;;;;36.47;17.40;;;3.00;99.90;;;;;;4955022;29;20039;-76
2021/12/03 09:52:31;;;;;;;28.77;15.98;;;3.00;99.90;;;;;;4937357;29;20118;-76
2021/12/03 09:55:08;;;;;;;33.40;15.90;;;3.00;99.90;;;;;;4945821;28;20517;-76
2021/12/03 09:57:38;;;;;;;30.20;16.70;;;3.00;99.90;;;;;;4955477;28;20058;-75
2021/12/03 10:14:16;;;;;;;32.35;16.58;;;3.10;99.90;;;;;;4962398;28;20047;-76
2021/12/03 10:17:20;;;;;;;30.38;16.75;;;3.10;99.90;;;;;;4964080;28;20039;-75
2021/12/03 10:19:59;;;;;;;31.75;16.90;;;3.20;99.90;;;;;;4952638;28;20054;-75
2021/12/03 10:25:29;;;;;;;26.58;14.73;;;3.20;99.90;;;;;;4953040;28;20053;-75
2021/12/03 10:36:43;;;;;;;26.42;13.93;;;3.30;99.90;;;;;;4970236;28;20105;-76
2021/12/03 10:44:56;;;;;;;29.85;13.52;;;3.30;99.90;;;;;;4943810;29;20055;-76
2021/12/03 10:47:40;;;;;;;26.30;14.20;;;3.30;99.90;;;;;;4952874;28;20047;-76
2021/12/03 10:50:13;;;;;;;28.50;13.32;;;3.30;99.90;;;;;;4954990;28;20117;-76
2021/12/03 10:52:58;;;;;;;29.73;14.20;;;3.80;99.90;;;;;;4936824;28;20034;-76
2021/12/03 10:58:47;;;;;;;23.42;11.15;;;3.40;99.90;;;;;;4947488;28;19926;-76
2021/12/03 11:07:01;;;;;;;23.27;10.30;;;3.40;99.90;;;;;;4935551;29;20086;-76
2021/12/03 11:18:27;;;;;;;18.33;7.68;;;4.10;99.90;;;;;;4935320;29;20499;-80
2021/12/03 11:21:36;;;;;;;15.75;7.63;;;3.60;99.90;;;;;;4958083;28;20137;-75
2021/12/03 11:43:27;;;;;;;;;;;3.70;99.90;;;;;;4956526;28;20047;-75
2021/12/03 11:55:35;;;;;;;18.55;5.63;;;3.60;99.90;;;;;;4956407;28;20399;-75
2021/12/03 12:00:24;;;;;;;14.63;5.40;;;3.60;99.90;;;;;;4966017;28;20482;-75
2021/12/03 12:07:39;;;;;;;18.10;5.15;;;3.60;99.90;;;;;;4961516;28;20051;-76
2021/12/03 12:13:55;;;;;;;19.58;5.68;;;3.60;99.90;;;;;;4938347;28;20051;-75
2021/12/03 13:06:56;;;;;;;15.75;7.72;;;3.30;99.90;;;;;;4958841;28;20549;-72
2021/12/03 13:45:52;;;;;;;;;;;3.40;99.90;;;;;;4968562;28;20058;-73
2021/12/03 14:00:46;;;;;;;16.33;7.93;;;3.50;99.90;;;;;;4946611;29;20090;-74
2021/12/03 14:08:51;;;;;;;12.10;6.13;;;3.50;99.90;;;;;;4953792;29;20067;-74
2021/12/03 14:12:11;;;;;;;15.63;6.63;;;3.50;99.90;;;;;;4941524;28;20058;-72
2021/12/03 14:19:01;;;;;;;14.77;6.30;;;3.50;99.90;;;;;;4953553;28;20054;-72
2021/12/03 14:54:53;;;;;;;16.05;7.05;;;3.90;99.90;;;;;;4940594;29;20047;-72
2021/12/03 14:57:43;;;;;;;14.90;6.70;;;4.20;99.90;;;;;;4953891;28;20078;-72
2021/12/03 15:00:19;;;;;;;16.45;7.68;;;3.90;99.90;;;;;;4962847;28;20042;-71
2021/12/03 15:08:10;;;;;;;15.43;6.90;;;3.90;99.90;;;;;;4953506;28;20043;-70
2021/12/03 15:13:18;;;;;;;12.90;7.25;;;4.00;99.90;;;;;;4950731;28;20051;-70
2021/12/03 15:17:12;;;;;;;14.82;7.40;;;4.00;99.90;;;;;;4950344;28;20058;-71
2021/12/03 15:26:32;;;;;;;15.65;9.13;;;4.10;99.90;;;;;;4973018;28;20118;-70
2021/12/03 15:58:31;;;;;;;13.77;8.43;;;4.30;99.90;;;;;;4954806;28;20086;-71
2021/12/03 16:06:20;;;;;;;18.23;9.43;;;4.30;99.90;;;;;;4964118;28;20055;-71
2021/12/03 16:08:48;;;;;;;12.65;8.48;;;3.60;99.90;;;;;;4950149;28;20043;-70
2021/12/03 16:14:17;;;;;;;13.60;9.15;;;4.30;99.90;;;;;;4952361;28;20384;-71
2021/12/03 16:24:54;;;;;;;19.17;12.48;;;4.30;99.90;;;;;;4940782;28;20054;-70
2021/12/03 16:43:56;;;;;;;22.70;14.30;;;4.20;99.90;;;;;;4952796;29;20055;-71
2021/12/03 16:51:54;;;;;;;28.70;17.67;;;4.20;99.90;;;;;;4938136;29;19929;-69
2021/12/03 16:54:32;;;;;;;28.15;16.20;;;4.10;99.90;;;;;;4937474;29;20110;-70
2021/12/03 16:56:57;;;;;;;24.75;17.35;;;4.10;99.90;;;;;;4950763;29;20097;-69
2021/12/03 16:59:25;;;;;;;27.40;17.85;;;4.10;99.90;;;;;;4937592;29;20075;-70
2021/12/03 17:02:07;;;;;;;28.58;18.13;;;4.10;99.90;;;;;;4970866;28;20061;-70
2021/12/03 17:10:12;;;;;;;28.23;17.75;;;4.10;99.90;;;;;;4937873;28;20122;-69
2021/12/03 17:15:19;;;;;;;25.38;16.17;;;4.10;99.90;;;;;;4948298;29;20055;-70
2021/12/03 17:45:13;;;;;;;30.85;19.17;;;4.20;99.90;;;;;;4936250;28;20055;-70
2021/12/03 17:50:40;;;;;;;27.90;17.83;;;4.20;99.90;;;;;;4952985;28;20051;-70
2021/12/03 17:58:42;;;;;;;32.42;19.42;;;4.20;99.90;;;;;;4960019;28;20055;-70
2021/12/03 18:01:12;;;;;;;31.33;19.15;;;4.20;99.90;;;;;;4954074;28;20170;-70
2021/12/03 18:06:49;;;;;;;30.73;19.17;;;4.20;99.90;;;;;;4956684;28;20507;-70
2021/12/03 18:09:46;;;;;;;28.52;18.85;;;4.30;99.90;;;;;;4953098;28;20740;-70
2021/12/03 18:12:31;;;;;;;34.63;19.30;;;4.30;99.90;;;;;;4955161;28;20062;-70
2021/12/03 18:17:50;;;;;;;33.05;20.55;;;4.30;99.90;;;;;;4935615;29;20117;-69
2021/12/03 18:45:16;;;;;;;38.58;22.13;;;4.40;99.90;;;;;;4962918;28;20039;-70
2021/12/03 18:48:01;;;;;;;33.95;19.88;;;4.40;99.90;;;;;;4941118;28;20043;-70
2021/12/03 18:53:35;;;;;;;37.65;22.15;;;4.40;99.90;;;;;;4934599;29;20078;-70
2021/12/03 18:56:04;;;;;;;37.28;22.48;;;4.40;99.90;;;;;;4939631;28;20047;-70
2021/12/03 18:58:30;;;;;;;35.90;21.42;;;4.40;99.90;;;;;;4945768;28;20070;-70
2021/12/03 19:00:57;;;;;;;41.15;24.88;;;4.40;99.90;;;;;;4938368;29;20051;-70
2021/12/03 19:03:32;;;;;;;43.40;27.25;;;4.40;99.90;;;;;;4940556;28;20039;-70
2021/12/03 19:06:05;;;;;;;;;;;4.40;99.90;;;;;;4967530;28;20199;-70
2021/12/03 19:08:52;;;;;;;39.45;22.48;;;4.90;99.90;;;;;;4936074;29;19926;-71
2021/12/03 19:11:30;;;;;;;40.22;22.73;;;4.40;99.90;;;;;;4937340;28;20047;-70
2021/12/03 19:13:56;;;;;;;40.63;22.80;;;4.40;99.90;;;;;;4921694;28;20062;-70
2021/12/03 19:16:24;;;;;;;42.45;23.90;;;4.40;99.90;;;;;;4918693;29;20481;-70
2021/12/03 19:18:53;;;;;;;40.22;24.00;;;4.40;99.90;;;;;;4930151;29;20542;-71
2021/12/03 19:21:28;;;;;;;39.00;23.35;;;4.50;99.90;;;;;;4927606;29;20052;-70
2021/12/03 19:23:58;;;;;;;40.30;24.45;;;4.40;99.90;;;;;;4931535;29;20126;-70
2021/12/03 19:26:30;;;;;;;38.70;21.92;;;4.50;99.90;;;;;;4915233;29;20540;-70
2021/12/03 19:28:58;;;;;;;38.90;22.80;;;4.50;99.90;;;;;;4920488;29;20570;-70
2021/12/03 19:31:25;;;;;;;48.22;25.15;;;4.50;99.90;;;;;;4931324;28;20052;-70
2021/12/03 19:33:50;;;;;;;43.13;24.73;;;4.50;99.90;;;;;;4912593;29;20063;-70
2021/12/03 19:36:21;;;;;;;38.67;22.17;;;4.50;99.90;;;;;;4921721;29;20472;-70
2021/12/03 19:38:48;;;;;;;37.42;21.45;;;4.50;99.90;;;;;;4923578;29;20440;-70